createdAt,value
2023-04-30T00:01:52.747Z,17.43
2023-04-30T00:06:55.868Z,16.84
2023-04-30T00:11:58.980Z,17.26
2023-04-30T00:17:02.481Z,19.34
2023-04-30T00:22:06.332Z,19.81
2023-04-30T00:27:09.310Z,18.40
2023-04-30T00:32:12.560Z,17.53
2023-04-30T00:37:15.758Z,16.96
2023-04-30T00:42:18.758Z,17.28
2023-04-30T00:47:22.082Z,19.43
2023-04-30T00:52:25.532Z,19.93
2023-04-30T00:57:29.430Z,18.50
2023-04-30T01:02:32.658Z,17.60
2023-04-30T01:07:38.876Z,16.98
2023-04-30T01:13:04.396Z,16.48
2023-04-30T01:18:12.813Z,17.13
2023-04-30T01:23:37.183Z,19.35
2023-04-30T01:28:42.851Z,19.83
2023-04-30T01:33:46.046Z,18.43
2023-04-30T01:39:09.896Z,17.58
2023-04-30T01:44:41.308Z,16.91
2023-04-30T01:50:17.753Z,17.35
2023-04-30T01:55:24.858Z,19.63
2023-04-30T02:00:30.720Z,19.93
2023-04-30T02:05:34.537Z,18.45
2023-04-30T02:10:37.567Z,17.47
2023-04-30T02:15:40.646Z,16.81
2023-04-30T02:20:44.047Z,17.11
2023-04-30T02:25:48.040Z,19.16
2023-04-30T02:30:51.079Z,19.56
2023-04-30T02:35:55.355Z,18.01
2023-04-30T02:40:58.432Z,17.01
2023-04-30T02:46:01.772Z,16.38
2023-04-30T02:51:05.341Z,16.89
2023-04-30T02:56:08.452Z,19.05
2023-04-30T03:01:11.493Z,19.38
2023-04-30T03:06:14.809Z,17.86
2023-04-30T03:11:17.919Z,16.96
2023-04-30T03:16:21.997Z,16.37
2023-04-30T03:21:25.108Z,16.81
2023-04-30T03:26:29.028Z,18.90
2023-04-30T03:31:32.552Z,19.26
2023-04-30T03:36:36.091Z,17.86
2023-04-30T03:41:39.096Z,16.95
2023-04-30T03:46:44.615Z,16.30
2023-04-30T03:51:47.985Z,15.78
2023-04-30T03:56:51.429Z,16.32
2023-04-30T04:07:24.661Z,18.17
2023-04-30T04:12:27.658Z,16.90
2023-04-30T04:17:30.717Z,16.23
2023-04-30T04:22:35.782Z,16.63
2023-04-30T04:27:38.769Z,18.84
2023-04-30T04:32:48.518Z,19.22
2023-04-30T04:37:51.669Z,17.68
2023-04-30T04:42:55.898Z,16.70
2023-04-30T04:47:59.181Z,16.05
2023-04-30T04:53:03.672Z,15.55
2023-04-30T04:58:06.854Z,15.97
2023-04-30T05:03:10.490Z,18.13
2023-04-30T05:08:13.991Z,17.56
2023-04-30T05:13:17.794Z,16.32
2023-04-30T05:18:21.251Z,15.62
2023-04-30T05:23:24.328Z,15.10
2023-04-30T05:28:27.456Z,14.66
2023-04-30T05:33:30.652Z,14.36
2023-04-30T05:38:33.687Z,15.01
2023-04-30T05:43:36.652Z,17.35
2023-04-30T05:48:40.122Z,17.59
2023-04-30T05:53:43.463Z,16.24
2023-04-30T05:58:46.535Z,15.46
2023-04-30T06:03:49.565Z,14.96
2023-04-30T06:08:52.640Z,14.54
2023-04-30T06:13:56.129Z,14.18
2023-04-30T06:18:59.228Z,13.88
2023-04-30T06:24:02.401Z,13.68
2023-04-30T06:29:05.409Z,13.49
2023-04-30T06:34:08.800Z,13.31
2023-04-30T06:39:15.274Z,13.19
2023-04-30T06:44:19.206Z,13.07
2023-04-30T06:49:23.173Z,12.96
2023-04-30T06:54:27.864Z,13.80
2023-04-30T06:59:31.433Z,16.27
2023-04-30T07:04:34.489Z,16.24
2023-04-30T07:09:37.877Z,15.03
2023-04-30T07:14:41.044Z,14.40
2023-04-30T07:19:44.223Z,14.05
2023-04-30T07:24:47.321Z,13.83
2023-04-30T07:29:51.648Z,13.66
2023-04-30T07:34:54.682Z,13.56
2023-04-30T07:39:57.791Z,13.49
2023-04-30T07:45:01.197Z,13.46
2023-04-30T07:50:04.913Z,13.44
2023-04-30T07:55:08.574Z,13.45
2023-04-30T08:00:12.577Z,13.47
2023-04-30T08:05:15.629Z,13.55
2023-04-30T08:10:18.802Z,13.63
2023-04-30T08:15:24.223Z,13.70
2023-04-30T08:20:27.533Z,13.82
2023-04-30T08:25:31.852Z,14.03
2023-04-30T08:30:34.984Z,14.16
2023-04-30T08:35:38.074Z,14.28
2023-04-30T08:45:51.193Z,14.77
2023-04-30T08:50:55.411Z,15.00
2023-04-30T08:55:59.810Z,15.38
2023-04-30T09:01:07.563Z,15.78
2023-04-30T09:06:15.226Z,16.12
2023-04-30T09:11:26.793Z,16.19
2023-04-30T09:16:57.946Z,16.18
2023-04-30T09:22:21.762Z,16.27
2023-04-30T09:27:25.092Z,16.40
2023-04-30T09:32:28.356Z,16.54
2023-04-30T09:37:40.295Z,16.68
2023-04-30T09:43:00.256Z,16.93
2023-04-30T09:48:16.419Z,16.91
2023-04-30T09:53:21.309Z,16.81
2023-04-30T09:58:29.962Z,16.70
2023-04-30T10:03:33.934Z,16.82
2023-04-30T10:08:44.254Z,17.07
2023-04-30T10:13:57.980Z,17.24
2023-04-30T10:19:07.734Z,17.45
2023-04-30T10:24:13.167Z,17.45
2023-04-30T10:29:17.181Z,17.62
2023-04-30T10:34:32.133Z,17.91
2023-04-30T10:39:37.748Z,18.11
2023-04-30T10:44:41.015Z,18.26
2023-04-30T10:49:49.407Z,18.41
2023-04-30T10:54:52.394Z,18.68
2023-04-30T11:00:07.997Z,19.00
2023-04-30T11:05:12.268Z,19.21
2023-04-30T11:10:16.237Z,19.37
2023-04-30T11:15:24.808Z,19.52
2023-04-30T11:20:28.317Z,19.78
2023-04-30T11:25:48.656Z,20.10
2023-04-30T11:30:52.792Z,20.27
2023-04-30T11:35:58.001Z,20.27
2023-04-30T11:41:02.134Z,20.31
2023-04-30T11:46:10.623Z,20.41
2023-04-30T11:51:22.024Z,20.63
2023-04-30T11:56:25.814Z,20.86
2023-04-30T12:01:29.311Z,20.96
2023-04-30T12:06:33.178Z,21.15
2023-04-30T12:11:36.488Z,21.42
2023-04-30T12:16:45.553Z,21.65
2023-04-30T12:21:49.913Z,21.80
2023-04-30T12:26:54.167Z,21.95
2023-04-30T12:31:58.295Z,22.07
2023-04-30T12:37:02.334Z,22.21
2023-04-30T12:42:05.624Z,22.37
2023-04-30T12:47:10.154Z,22.44
2023-04-30T12:52:14.278Z,22.55
2023-04-30T12:57:17.572Z,22.61
2023-04-30T13:02:24.755Z,22.69
2023-04-30T13:07:38.330Z,22.75
2023-04-30T13:12:48.893Z,22.83
2023-04-30T13:17:54.591Z,22.97
2023-04-30T13:22:57.961Z,23.12
2023-04-30T13:28:01.013Z,23.19
2023-04-30T13:33:04.203Z,23.23
2023-04-30T13:38:07.357Z,23.26
2023-04-30T13:43:10.573Z,23.33
2023-04-30T13:48:13.953Z,23.40
2023-04-30T13:53:17.158Z,23.39
2023-04-30T13:58:20.787Z,23.37
2023-04-30T14:03:24.031Z,23.44
2023-04-30T14:08:27.136Z,23.50
2023-04-30T14:13:30.665Z,23.54
2023-04-30T14:18:33.969Z,23.47
2023-04-30T16:25:36.270Z,25.13
2023-04-30T16:30:40.429Z,24.05
2023-04-30T16:35:44.000Z,22.97
2023-04-30T16:40:48.121Z,22.00
2023-04-30T16:45:52.077Z,21.19
2023-04-30T16:50:55.396Z,20.50
2023-04-30T16:55:58.588Z,19.89
2023-04-30T17:01:02.239Z,19.34
2023-04-30T17:06:06.168Z,18.86
2023-04-30T17:11:09.412Z,18.55
2023-04-30T17:16:14.620Z,18.26
2023-04-30T17:25:32.200Z,17.78
2023-04-30T17:30:53.142Z,17.60
2023-04-30T17:35:56.422Z,17.41
2023-04-30T17:40:59.954Z,17.25
2023-04-30T17:46:03.654Z,17.16
2023-04-30T17:51:08.074Z,17.13
2023-04-30T17:56:12.368Z,17.18
2023-04-30T18:01:15.494Z,17.23
2023-04-30T18:06:18.540Z,17.18
2023-04-30T18:11:21.904Z,17.00
2023-04-30T18:16:25.026Z,16.82
2023-04-30T18:21:28.222Z,16.63
2023-04-30T18:26:31.796Z,16.47
2023-04-30T18:31:36.878Z,16.29
2023-04-30T18:36:43.106Z,16.11
2023-04-30T18:41:46.312Z,15.94
2023-04-30T18:46:49.305Z,15.80
2023-04-30T18:51:54.865Z,15.69
2023-04-30T18:56:58.564Z,15.59
2023-04-30T19:02:01.637Z,15.51
2023-04-30T19:07:04.971Z,15.37
2023-04-30T19:12:10.378Z,15.26
2023-04-30T19:17:21.485Z,15.15
2023-04-30T19:22:24.897Z,15.10
2023-04-30T19:27:28.199Z,15.05
2023-04-30T19:32:31.589Z,14.95
2023-04-30T19:37:34.789Z,14.92
2023-04-30T19:42:39.766Z,14.86
2023-04-30T19:47:42.740Z,14.75
2023-04-30T19:52:45.776Z,14.65
2023-04-30T19:57:48.764Z,14.53
2023-04-30T20:02:52.177Z,14.41
2023-04-30T20:07:55.398Z,14.28
2023-04-30T20:12:58.530Z,14.16
2023-04-30T20:18:02.008Z,14.04
2023-04-30T20:23:16.324Z,13.97
2023-04-30T20:28:19.802Z,13.92
2023-04-30T20:33:23.181Z,13.98
2023-04-30T20:38:26.423Z,14.00
2023-04-30T20:43:29.649Z,13.98
2023-04-30T20:48:33.570Z,13.96
2023-04-30T20:53:36.713Z,13.91
2023-04-30T20:58:39.778Z,13.85
2023-04-30T21:03:42.948Z,13.78
2023-04-30T21:08:46.525Z,13.69
2023-04-30T21:13:51.381Z,13.56
2023-04-30T21:18:54.618Z,13.45
2023-04-30T21:24:01.113Z,13.34
2023-04-30T21:29:04.428Z,13.28
2023-04-30T21:34:07.560Z,13.23
2023-04-30T21:39:10.520Z,13.13
2023-04-30T21:44:13.630Z,13.02
2023-04-30T21:49:17.011Z,12.88
2023-04-30T21:54:20.079Z,12.76
2023-04-30T21:59:23.049Z,12.65
2023-04-30T22:04:26.721Z,12.53
2023-04-30T22:09:31.903Z,12.41
2023-04-30T22:14:35.318Z,12.31
2023-04-30T22:20:01.305Z,12.18
2023-04-30T22:25:04.892Z,12.09
2023-04-30T22:30:09.998Z,12.01
2023-04-30T22:35:16.334Z,11.93
2023-04-30T22:45:20.808Z,11.76
2023-04-30T22:50:24.194Z,11.69
2023-04-30T22:55:28.119Z,11.63
2023-04-30T23:00:31.779Z,11.56
2023-04-30T23:05:35.095Z,11.49
2023-04-30T23:10:38.182Z,11.42
2023-04-30T23:15:43.341Z,11.36
2023-04-30T23:20:47.591Z,11.31
2023-04-30T23:25:51.350Z,11.26
2023-04-30T23:30:55.323Z,11.21
2023-04-30T23:35:58.450Z,11.15
2023-04-30T23:41:03.416Z,11.08
2023-04-30T23:46:06.632Z,11.01
2023-04-30T23:51:10.017Z,10.94
2023-04-30T23:56:13.332Z,10.87
